KONP

Newport Municipal Airport

Newport, Oregon, USA
METAR KONP 160135Z AUTO 12007KT 10SM -DZ BKN049 BKN060 OVC085 10/04 A2983 RMK AO2
Observed Flight Rules
Dec-16 @ 01:35 UTC (18 minutes ago) Visual Flight Rules
Wind Visibility Clouds Conditions
120° at 7 knots 10 miles
  • Broken at 4,900' AGL
  • Broken at 6,000' AGL
  • Overcast at 8,500' AGL
  • Light Drizzle
Temperatures Readings
Current 10°C / 50°F
Dewpoint 4°C / 39°F
Humidity 67%
Altimeter 29.83" Hg
Pressure 1010 hPa
Elevation 48
METAR KONP 160135Z AUTO 12007KT 10SM -DZ BKN049 BKN060 OVC085 10/04 A2983 RMK AO2
Observed Flight Rules
Dec-16 @ 01:35 UTC
(18 minutes ago)
VFR
Wind Visibility
120° at 7 knots 10 miles
Clouds
  • Broken at 4,900' AGL
  • Broken at 6,000' AGL
  • Overcast at 8,500' AGL
Conditions
  • Light Drizzle
Temperature Dewpoint
10°C / 50°F 4°C / 39°F
Humidity Altimeter Pressure
67% 29.83" Hg 1010 hPa